createdAt,value
2017-11-01T00:00:55.852Z,93.56
2017-11-01T00:01:56.164Z,93.18
2017-11-01T00:02:55.832Z,93.56
2017-11-01T00:03:56.296Z,93.37
2017-11-01T00:04:56.139Z,93.56
2017-11-01T00:05:56.128Z,93.37
2017-11-01T00:06:56.132Z,93.37
2017-11-01T00:07:55.785Z,93.56
2017-11-01T00:08:56.101Z,93.27
2017-11-01T00:09:55.768Z,93.75
2017-11-01T00:10:56.081Z,93.75
2017-11-01T00:11:55.748Z,93.65
2017-11-01T00:12:55.736Z,93.94
2017-11-01T00:13:56.061Z,93.37
2017-11-01T00:14:55.717Z,94.04
2017-11-01T00:15:56.033Z,93.75
2017-11-01T00:16:56.022Z,93.84
2017-11-01T00:17:55.789Z,93.65
2017-11-01T00:18:56.007Z,93.84
2017-11-01T00:19:55.668Z,93.75
2017-11-01T00:20:55.992Z,93.75
2017-11-01T00:21:55.983Z,93.84
2017-11-01T00:22:55.641Z,93.84
2017-11-01T00:23:55.630Z,94.32
2017-11-01T00:24:55.620Z,93.84
2017-11-01T00:25:55.613Z,93.65
2017-11-01T00:26:55.926Z,93.27
2017-11-01T00:27:55.592Z,93.65
2017-11-01T00:28:55.905Z,92.99
2017-11-01T00:29:55.895Z,93.27
2017-11-01T00:30:55.891Z,93.46
2017-11-01T00:31:55.556Z,93.94
2017-11-01T00:32:55.692Z,93.84
2017-11-01T00:33:55.535Z,94.04
2017-11-01T00:34:55.845Z,93.65
2017-11-01T00:35:55.514Z,93.75
2017-11-01T00:36:55.834Z,93.75
2017-11-01T00:37:55.493Z,94.08
2017-11-01T00:38:55.808Z,93.27
2017-11-01T00:39:55.473Z,93.41
2017-11-01T00:40:55.466Z,93.84
2017-11-01T00:41:55.454Z,93.8
2017-11-01T00:42:55.767Z,93.99
2017-11-01T00:43:55.763Z,94.74
2017-11-01T00:44:55.748Z,93.8
2017-11-01T00:45:55.417Z,93.8
2017-11-01T00:46:55.407Z,93.7
2017-11-01T00:47:55.401Z,93.75
2017-11-01T00:48:55.388Z,93.75
2017-11-01T00:49:55.703Z,93.7
2017-11-01T00:50:55.369Z,93.84
2017-11-01T00:51:55.683Z,93.37
2017-11-01T00:52:55.349Z,93.75
2017-11-01T00:53:55.337Z,94.42
2017-11-01T00:54:55.657Z,94.13
2017-11-01T00:55:55.319Z,94.37
2017-11-01T00:56:55.639Z,93.8
2017-11-01T00:57:55.622Z,93.65
2017-11-01T00:58:55.288Z,93.75
2017-11-01T00:59:55.607Z,94.74
2017-11-01T01:00:55.270Z,94.37
2017-11-01T01:01:55.585Z,94.37
2017-11-01T01:02:55.573Z,94.51
2017-11-01T01:03:55.260Z,94.18
2017-11-01T01:04:55.332Z,93.99
2017-11-01T01:05:55.545Z,94.65
2017-11-01T01:06:55.213Z,94.46
2017-11-01T01:07:55.201Z,94.93
2017-11-01T01:08:55.514Z,94.74
2017-11-01T01:09:55.504Z,95.12
2017-11-01T01:10:55.511Z,94.74
2017-11-01T01:11:55.165Z,94.93
2017-11-01T01:12:55.475Z,94.65
2017-11-01T01:13:55.467Z,95.12
2017-11-01T01:14:55.457Z,95.12
2017-11-01T01:15:55.127Z,94.84
2017-11-01T01:16:55.115Z,94.84
2017-11-01T01:17:55.205Z,94.56
2017-11-01T01:18:55.416Z,94.93
2017-11-01T01:19:55.084Z,94.37
2017-11-01T01:20:55.076Z,94.56
2017-11-01T01:21:55.547Z,94.74
2017-11-01T01:22:55.059Z,94.56
2017-11-01T01:23:55.048Z,94.74
2017-11-01T01:24:55.039Z,94.65
2017-11-01T01:25:55.029Z,94.37
2017-11-01T01:26:55.020Z,94.37
2017-11-01T01:27:55.337Z,94.74
2017-11-01T01:28:55.099Z,94.37
2017-11-01T01:29:55.316Z,94.56
2017-11-01T01:30:54.978Z,94.37
2017-11-01T01:31:55.290Z,94.37
2017-11-01T01:32:55.059Z,94.56
2017-11-01T01:33:55.274Z,94.56
2017-11-01T01:34:55.263Z,93.89
2017-11-01T01:35:55.256Z,93.41
2017-11-01T01:36:55.242Z,93.7
2017-11-01T01:37:55.333Z,93.89
2017-11-01T01:38:55.224Z,94.08
2017-11-01T01:39:55.214Z,93.61
2017-11-01T01:40:54.879Z,93.61
2017-11-01T01:41:54.872Z,93.8
2017-11-01T01:42:55.190Z,93.8
2017-11-01T01:43:55.278Z,93.8
2017-11-01T01:44:54.846Z,93.8
2017-11-01T01:45:55.155Z,94.56
2017-11-01T01:46:55.146Z,94.27
2017-11-01T01:47:54.811Z,94.37
2017-11-01T01:48:54.803Z,94.65
2017-11-01T01:49:54.794Z,94.74
2017-11-01T01:50:55.124Z,94.37
2017-11-01T01:51:54.773Z,94.56
2017-11-01T01:52:54.763Z,94.18
2017-11-01T01:53:54.753Z,94.56
2017-11-01T01:54:55.070Z,94.65
2017-11-01T01:55:54.735Z,94.74
2017-11-01T01:56:55.049Z,93.99
2017-11-01T01:57:55.040Z,94.65
2017-11-01T01:58:54.704Z,94.18
2017-11-01T01:59:54.695Z,94.56
2017-11-01T02:00:55.014Z,94.65
2017-11-01T02:01:54.677Z,94.65
2017-11-01T02:02:54.665Z,94.56
2017-11-01T02:03:54.980Z,94.27
2017-11-01T02:04:54.972Z,94.37
2017-11-01T02:05:54.970Z,94.46
2017-11-01T02:06:54.958Z,95.03
2017-11-01T02:07:55.048Z,95.12
2017-11-01T02:08:54.607Z,94.18
2017-11-01T02:09:54.922Z,94.56
2017-11-01T02:10:54.589Z,94.74
2017-11-01T02:11:54.903Z,94.18
2017-11-01T02:12:54.897Z,94.27
2017-11-01T02:13:54.559Z,93.89
2017-11-01T02:14:54.550Z,93.51
2017-11-01T02:15:54.860Z,93.8
2017-11-01T02:16:54.527Z,93.7
2017-11-01T02:17:54.844Z,93.8
2017-11-01T02:18:54.833Z,93.8
2017-11-01T02:19:54.823Z,93.7
2017-11-01T02:20:54.813Z,94.08
2017-11-01T02:21:54.491Z,93.99
2017-11-01T02:22:54.471Z,93.51
2017-11-01T02:23:54.785Z,93.32
2017-11-01T02:24:54.450Z,93.41
2017-11-01T02:25:54.771Z,92.47
2017-11-01T02:26:54.442Z,92.38
2017-11-01T02:27:54.524Z,92.57
2017-11-01T02:28:54.411Z,92.76
2017-11-01T02:29:54.402Z,93.04
2017-11-01T02:30:54.718Z,93.32
2017-11-01T02:31:54.710Z,92.85
2017-11-01T02:32:54.700Z,92.38
2017-11-01T02:33:54.361Z,92.66
2017-11-01T02:34:54.677Z,92.66
2017-11-01T02:35:54.671Z,92.85
2017-11-01T02:36:54.658Z,93.23
2017-11-01T02:37:54.650Z,93.7
2017-11-01T02:38:54.641Z,93.51
2017-11-01T02:39:54.629Z,93.41
2017-11-01T02:40:54.295Z,93.32
2017-11-01T02:41:54.607Z,93.41
2017-11-01T02:42:54.275Z,93.41
2017-11-01T02:43:54.266Z,93.99
2017-11-01T02:44:54.255Z,93.8
2017-11-01T02:45:54.675Z,93.51
2017-11-01T02:46:54.236Z,94.46
2017-11-01T02:47:54.228Z,94.18
2017-11-01T02:48:54.541Z,94.56
2017-11-01T02:49:54.205Z,94.18
2017-11-01T02:50:54.520Z,94.56
2017-11-01T02:51:54.528Z,94.65
2017-11-01T02:52:54.506Z,94.65
2017-11-01T02:53:54.491Z,94.37
2017-11-01T02:54:54.158Z,94.37
2017-11-01T02:55:54.470Z,94.46
2017-11-01T02:56:54.463Z,94.65
2017-11-01T02:57:54.453Z,94.37
2017-11-01T02:58:54.448Z,94.37
2017-11-01T02:59:54.445Z,94.18
2017-11-01T03:00:54.421Z,93.89
2017-11-01T03:01:54.089Z,93.7
2017-11-01T03:02:54.078Z,93.99
2017-11-01T03:03:54.394Z,93.8
2017-11-01T03:04:54.385Z,94.56
2017-11-01T03:05:54.048Z,94.46
2017-11-01T03:06:54.039Z,94.18
2017-11-01T03:07:54.353Z,94.46
2017-11-01T03:08:54.345Z,95.12
2017-11-01T03:09:54.009Z,94.74
2017-11-01T03:10:54.103Z,94.93
2017-11-01T03:11:53.990Z,94.93
2017-11-01T03:12:54.305Z,94.93
2017-11-01T03:13:53.971Z,94.74
2017-11-01T03:14:53.961Z,94.46
2017-11-01T03:15:54.272Z,94.56
2017-11-01T03:16:54.265Z,94.27
2017-11-01T03:17:54.257Z,94.27
2017-11-01T03:18:53.924Z,94.18
2017-11-01T03:19:53.913Z,95.12
2017-11-01T03:20:54.227Z,95.03
2017-11-01T03:21:54.219Z,94.74
2017-11-01T03:22:53.883Z,94.84
2017-11-01T03:23:54.202Z,94.84
2017-11-01T03:24:54.187Z,94.93
2017-11-01T03:25:53.855Z,94.27
2017-11-01T03:26:53.844Z,94.46
2017-11-01T03:27:53.833Z,94.74
2017-11-01T03:28:54.147Z,93.8
2017-11-01T03:29:53.815Z,93.89
2017-11-01T03:30:54.128Z,94.08
2017-11-01T03:31:54.117Z,93.32
2017-11-01T03:32:53.786Z,93.89
2017-11-01T03:33:53.773Z,93.51
2017-11-01T03:34:53.764Z,93.61
2017-11-01T03:35:54.083Z,93.99
2017-11-01T03:36:54.071Z,93.51
2017-11-01T03:37:53.735Z,93.51
2017-11-01T03:38:53.734Z,93.8
2017-11-01T03:39:53.716Z,93.7
2017-11-01T03:40:53.706Z,93.7
2017-11-01T03:41:53.695Z,93.99
2017-11-01T03:42:54.011Z,94.08
2017-11-01T03:43:53.688Z,93.99
2017-11-01T03:44:53.671Z,93.41
2017-11-01T03:45:53.656Z,94.08
2017-11-01T03:46:53.647Z,93.8
2017-11-01T03:47:53.637Z,93.89
2017-11-01T03:48:53.953Z,93.8
2017-11-01T03:49:53.948Z,93.99
2017-11-01T03:50:53.607Z,93.8
2017-11-01T03:51:53.598Z,94.74
2017-11-01T03:52:53.588Z,94.08
2017-11-01T03:53:53.904Z,94.74
2017-11-01T03:54:53.568Z,94.37
2017-11-01T03:55:53.557Z,94.93
2017-11-01T03:56:53.880Z,95.12
2017-11-01T03:57:53.876Z,94.93
2017-11-01T03:58:53.528Z,94.74
2017-11-01T03:59:53.842Z,94.74
2017-11-01T04:00:53.831Z,94.74
2017-11-01T04:01:53.498Z,94.89
2017-11-01T04:02:53.812Z,95.17
2017-11-01T04:03:53.480Z,95.12
2017-11-01T04:04:53.795Z,94.74
2017-11-01T04:05:53.461Z,94.93
2017-11-01T04:06:53.449Z,94.84
2017-11-01T04:07:53.439Z,95.6
2017-11-01T04:08:53.429Z,95.41
2017-11-01T04:09:53.421Z,95.79
2017-11-01T04:10:53.734Z,95.55
2017-11-01T04:11:53.406Z,95.84
2017-11-01T04:12:53.720Z,95.55
2017-11-01T04:13:53.703Z,95.55
2017-11-01T04:14:53.370Z,95.46
2017-11-01T04:15:53.359Z,95.65
2017-11-01T04:16:53.672Z,95.46
2017-11-01T04:17:53.663Z,96.03
2017-11-01T04:18:53.656Z,95.55
2017-11-01T04:19:53.668Z,95.46
2017-11-01T04:20:53.938Z,96.12
2017-11-01T04:21:53.623Z,96.08
2017-11-01T04:22:53.615Z,95.88
2017-11-01T04:23:53.604Z,96.22
2017-11-01T04:24:53.696Z,95.93
2017-11-01T04:25:53.593Z,95.74
2017-11-01T04:26:53.353Z,96.12
2017-11-01T04:27:53.669Z,96.03
2017-11-01T04:28:53.233Z,96.41
2017-11-01T04:29:53.549Z,96.08
2017-11-01T04:30:53.538Z,95.69
2017-11-01T04:31:53.203Z,95.79
2017-11-01T04:32:53.528Z,95.79
2017-11-01T04:33:53.184Z,95.69
2017-11-01T04:34:53.499Z,96.17
2017-11-01T04:35:53.483Z,96.08
2017-11-01T04:36:53.152Z,95.98
2017-11-01T04:37:53.154Z,96.08
2017-11-01T04:38:53.461Z,95.98
2017-11-01T04:39:53.124Z,96.17
2017-11-01T04:40:53.439Z,95.98
2017-11-01T04:41:53.107Z,96.45
2017-11-01T04:42:53.095Z,96.5
2017-11-01T04:43:53.407Z,96.88
2017-11-01T04:44:53.400Z,96.55
2017-11-01T04:45:53.390Z,96.83
2017-11-01T04:46:53.397Z,96.97
2017-11-01T04:47:53.369Z,96.88
2017-11-01T04:48:53.359Z,96.97
2017-11-01T04:49:53.027Z,97.07
2017-11-01T04:50:53.016Z,96.97
2017-11-01T04:51:53.007Z,96.97
2017-11-01T04:52:52.995Z,96.12
2017-11-01T04:53:53.311Z,96.22
2017-11-01T04:54:52.984Z,96.12
2017-11-01T04:55:53.072Z,96.5
2017-11-01T04:56:53.284Z,97.07
2017-11-01T04:57:53.276Z,96.88
2017-11-01T04:58:52.941Z,96.88
2017-11-01T04:59:52.930Z,96.41
2017-11-01T05:00:53.245Z,96.31
2017-11-01T05:01:53.231Z,96.5
2017-11-01T05:02:53.226Z,96.5
2017-11-01T05:03:53.210Z,96.41
2017-11-01T05:04:52.878Z,96.5
2017-11-01T05:05:52.869Z,96.78
2017-11-01T05:06:53.285Z,96.59
2017-11-01T05:07:53.175Z,96.78
2017-11-01T05:08:53.162Z,97.07
2017-11-01T05:09:52.828Z,97.07
2017-11-01T05:10:53.146Z,97.07
2017-11-01T05:11:53.133Z,96.03
2017-11-01T05:12:52.805Z,96.41
2017-11-01T05:13:52.788Z,95.84
2017-11-01T05:14:53.107Z,96.03
2017-11-01T05:15:52.773Z,96.41
2017-11-01T05:16:53.083Z,96.03
2017-11-01T05:17:52.759Z,96.88
2017-11-01T05:18:52.741Z,96.59
2017-11-01T05:19:52.728Z,96.5
2017-11-01T05:20:52.723Z,96.22
2017-11-01T05:21:53.137Z,96.41
2017-11-01T05:22:52.703Z,95.65
2017-11-01T05:23:53.016Z,95.93
2017-11-01T05:24:52.679Z,95.69
2017-11-01T05:25:52.671Z,95.55
2017-11-01T05:26:52.991Z,95.74
2017-11-01T05:27:52.650Z,95.6
2017-11-01T05:28:52.963Z,95.55
2017-11-01T05:29:52.962Z,95.69
2017-11-01T05:30:52.951Z,95.93
2017-11-01T05:31:52.612Z,95.5
2017-11-01T05:32:52.853Z,95.84
2017-11-01T05:33:52.593Z,95.84
2017-11-01T05:34:52.904Z,95.84
2017-11-01T05:35:52.897Z,95.55
2017-11-01T05:36:52.564Z,95.84
2017-11-01T05:37:52.874Z,95.46
2017-11-01T05:38:52.545Z,95.84
2017-11-01T05:39:52.858Z,95.93
2017-11-01T05:40:52.847Z,95.84
2017-11-01T05:41:52.514Z,95.5
2017-11-01T05:42:52.828Z,96.41
2017-11-01T05:43:52.601Z,96.12
2017-11-01T05:44:52.585Z,96.12
2017-11-01T05:45:52.473Z,96.12
2017-11-01T05:46:52.790Z,96.03
2017-11-01T05:47:52.777Z,96.22
2017-11-01T05:48:52.770Z,96.03
2017-11-01T05:49:52.857Z,96.12
2017-11-01T05:50:52.747Z,96.22
2017-11-01T05:51:52.417Z,96.31
2017-11-01T05:52:52.404Z,95.93
2017-11-01T05:53:52.823Z,96.41
2017-11-01T05:54:52.385Z,96.22
2017-11-01T05:55:52.701Z,96.12
2017-11-01T05:56:52.686Z,95.93
2017-11-01T05:57:52.357Z,96.03
2017-11-01T05:58:52.669Z,95.55
2017-11-01T05:59:52.659Z,95.55
2017-11-01T06:00:52.678Z,95.36
2017-11-01T06:01:52.640Z,96.41
2017-11-01T06:02:52.626Z,96.41
2017-11-01T06:03:52.616Z,96.12
2017-11-01T06:04:52.284Z,95.65
2017-11-01T06:05:52.275Z,96.22
2017-11-01T06:06:52.269Z,95.93
2017-11-01T06:07:52.256Z,96.12
2017-11-01T06:08:52.576Z,96.12
2017-11-01T06:09:52.236Z,95.93
2017-11-01T06:10:52.547Z,95.84
2017-11-01T06:11:52.216Z,96.41
2017-11-01T06:12:52.204Z,95.55
2017-11-01T06:13:52.197Z,95.65
2017-11-01T06:14:52.187Z,96.03
2017-11-01T06:15:52.499Z,96.12
2017-11-01T06:16:52.496Z,95.84
2017-11-01T06:17:52.159Z,96.22
2017-11-01T06:18:52.468Z,96.22
2017-11-01T06:19:52.461Z,96.41
2017-11-01T06:20:52.450Z,96.69
2017-11-01T06:21:52.440Z,96.41
2017-11-01T06:22:52.107Z,96.5
2017-11-01T06:23:52.419Z,96.59
2017-11-01T06:24:52.410Z,96.5
2017-11-01T06:25:52.077Z,96.59
2017-11-01T06:26:52.390Z,96.5
2017-11-01T06:27:52.059Z,96.59
2017-11-01T06:28:52.373Z,96.22
2017-11-01T06:29:52.042Z,95.93
2017-11-01T06:30:52.031Z,96.03
2017-11-01T06:31:52.021Z,95.65
2017-11-01T06:32:52.335Z,96.03
2017-11-01T06:33:52.320Z,95.65
2017-11-01T06:34:51.990Z,95.46
2017-11-01T06:35:52.305Z,95.84
2017-11-01T06:36:52.292Z,95.74
2017-11-01T06:37:52.290Z,95.65
2017-11-01T06:38:52.274Z,95.65
2017-11-01T06:39:51.941Z,95.84
2017-11-01T06:40:51.931Z,95.84
2017-11-01T06:41:51.923Z,95.55
2017-11-01T06:42:51.914Z,95.74
2017-11-01T06:43:52.234Z,95.74
2017-11-01T06:44:51.893Z,95.74
2017-11-01T06:45:52.204Z,95.55
2017-11-01T06:46:51.874Z,95.74
2017-11-01T06:47:51.862Z,96.22
2017-11-01T06:48:51.857Z,95.46
2017-11-01T06:49:51.843Z,95.84
2017-11-01T06:50:51.832Z,95.65
2017-11-01T06:51:52.146Z,95.74
2017-11-01T06:52:51.914Z,96.31
2017-11-01T06:53:52.134Z,96.22
2017-11-01T06:54:51.794Z,96.12
2017-11-01T06:55:51.784Z,96.12
2017-11-01T06:56:51.776Z,95.55
2017-11-01T06:57:51.767Z,96.41
2017-11-01T06:58:51.752Z,96.31
2017-11-01T06:59:52.324Z,96.59
2017-11-01T07:00:52.067Z,95.93
2017-11-01T07:01:51.724Z,96.31
2017-11-01T07:02:51.715Z,96.12
2017-11-01T07:03:52.031Z,96.31
2017-11-01T07:04:52.020Z,95.65
2017-11-01T07:05:51.683Z,95.84
2017-11-01T07:06:51.675Z,95.46
2017-11-01T07:07:51.987Z,95.07
2017-11-01T07:08:51.980Z,95.84
2017-11-01T07:09:51.646Z,95.65
2017-11-01T07:10:51.959Z,95.84
2017-11-01T07:11:51.635Z,96.03
2017-11-01T07:12:51.938Z,95.65
2017-11-01T07:13:51.928Z,96.41
2017-11-01T07:14:51.918Z,96.31
2017-11-01T07:15:51.589Z,96.12
2017-11-01T07:16:51.899Z,96.22
2017-11-01T07:17:51.569Z,95.93
2017-11-01T07:18:51.880Z,95.84
2017-11-01T07:19:51.888Z,95.93
2017-11-01T07:20:51.862Z,96.22
2017-11-01T07:21:51.851Z,96.31
2017-11-01T07:22:51.846Z,96.31
2017-11-01T07:23:51.831Z,95.55
2017-11-01T07:24:51.499Z,95.65
2017-11-01T07:25:51.489Z,95.46
2017-11-01T07:26:51.478Z,95.65
2017-11-01T07:27:51.472Z,95.93
2017-11-01T07:28:51.780Z,96.12
2017-11-01T07:29:51.774Z,96.22
2017-11-01T07:30:51.441Z,96.03
2017-11-01T07:31:51.435Z,96.31
2017-11-01T07:32:51.420Z,96.31
2017-11-01T07:33:51.409Z,96.31
2017-11-01T07:34:51.400Z,96.03
2017-11-01T07:35:51.390Z,96.12
2017-11-01T07:36:51.708Z,95.84
2017-11-01T07:37:51.691Z,96.03
2017-11-01T07:38:51.691Z,96.22
2017-11-01T07:39:51.676Z,96.31
2017-11-01T07:40:51.348Z,96.41
2017-11-01T07:41:51.660Z,96.22
2017-11-01T07:42:51.643Z,96.88
2017-11-01T07:43:51.641Z,96.78
2017-11-01T07:44:51.625Z,96.69
2017-11-01T07:45:51.294Z,96.22
2017-11-01T07:46:51.607Z,96.45
2017-11-01T07:47:51.699Z,95.98
2017-11-01T07:48:51.586Z,96.36
2017-11-01T07:49:51.582Z,96.31
2017-11-01T07:50:51.564Z,96.26
2017-11-01T07:51:51.555Z,97.02
2017-11-01T07:52:51.544Z,96.45
2017-11-01T07:53:51.215Z,96.64
2017-11-01T07:54:51.526Z,96.26
2017-11-01T07:55:51.515Z,96.64
2017-11-01T07:56:51.183Z,96.93
2017-11-01T07:57:51.596Z,97.12
2017-11-01T07:58:51.595Z,96.55
2017-11-01T07:59:51.476Z,96.74
2017-11-01T08:00:51.470Z,96.93
2017-11-01T08:01:51.458Z,96.26
2017-11-01T08:02:51.449Z,96.26
2017-11-01T08:03:51.120Z,96.45
2017-11-01T08:04:51.680Z,96.64
2017-11-01T08:05:51.098Z,96.26
2017-11-01T08:06:51.087Z,95.94
2017-11-01T08:07:51.400Z,95.98
2017-11-01T08:08:51.400Z,96.26
2017-11-01T08:09:51.384Z,96.36
2017-11-01T08:10:51.369Z,95.7
2017-11-01T08:11:51.362Z,95.84
2017-11-01T08:12:51.354Z,95.89
2017-11-01T08:13:51.345Z,95.89
2017-11-01T08:14:51.009Z,95.41
2017-11-01T08:15:50.999Z,95.75
2017-11-01T08:16:50.990Z,95.89
2017-11-01T08:17:50.982Z,95.94
2017-11-01T08:18:51.396Z,96.03
2017-11-01T08:19:51.287Z,96.03
2017-11-01T08:20:51.274Z,95.94
2017-11-01T08:21:51.266Z,95.46
2017-11-01T08:22:50.930Z,95.94
2017-11-01T08:23:50.937Z,95.94
2017-11-01T08:24:51.237Z,95.75
2017-11-01T08:25:50.902Z,95.94
2017-11-01T08:26:50.893Z,96.03
2017-11-01T08:27:50.883Z,94.79
2017-11-01T08:28:50.873Z,95.08
2017-11-01T08:29:51.187Z,94.79
2017-11-01T08:30:50.854Z,95.17
2017-11-01T08:31:51.177Z,94.51
2017-11-01T08:32:50.842Z,94.6
2017-11-01T08:33:51.146Z,94.51
2017-11-01T08:34:50.815Z,94.89
2017-11-01T08:35:50.806Z,94.79
2017-11-01T08:36:50.796Z,94.13
2017-11-01T08:37:51.105Z,93.84
2017-11-01T08:38:50.778Z,94.32
2017-11-01T08:39:50.767Z,94.13
2017-11-01T08:40:50.758Z,93.94
2017-11-01T08:41:50.749Z,94.03
2017-11-01T08:42:50.738Z,93.94
2017-11-01T08:43:51.059Z,93.84
2017-11-01T08:44:51.048Z,94.32
2017-11-01T08:45:50.710Z,94.13
2017-11-01T08:46:50.698Z,93.75
2017-11-01T08:47:51.014Z,94.23
2017-11-01T08:48:51.002Z,94.18
2017-11-01T08:49:50.672Z,94.23
2017-11-01T08:50:50.980Z,94.03
2017-11-01T08:51:50.650Z,94.23
2017-11-01T08:52:50.967Z,94.23
2017-11-01T08:53:50.632Z,94.03
2017-11-01T08:54:50.944Z,94.32
2017-11-01T08:55:50.612Z,93.94
2017-11-01T08:56:50.925Z,94.32
2017-11-01T08:57:50.595Z,94.23
2017-11-01T08:58:50.910Z,94.18
2017-11-01T08:59:50.573Z,93.99
2017-11-01T09:00:50.569Z,94.13
2017-11-01T09:01:50.705Z,93.7
2017-11-01T09:02:50.544Z,93.6
2017-11-01T09:03:50.857Z,93.79
2017-11-01T09:04:50.527Z,93.79
2017-11-01T09:05:50.837Z,93.41
2017-11-01T09:06:50.926Z,93.99
2017-11-01T09:07:50.496Z,93.89
2017-11-01T09:08:50.809Z,93.89
2017-11-01T09:09:50.481Z,93.04
2017-11-01T09:10:50.792Z,93.04
2017-11-01T09:11:50.460Z,92.37
2017-11-01T09:12:50.459Z,93.23
2017-11-01T09:13:50.438Z,92.75
2017-11-01T09:14:50.433Z,92.85
2017-11-01T09:15:50.746Z,92.46
2017-11-01T09:16:50.410Z,92.75
2017-11-01T09:17:50.725Z,92.85
2017-11-01T09:18:50.392Z,92.94
2017-11-01T09:19:50.383Z,92.94
2017-11-01T09:20:50.371Z,93.13
2017-11-01T09:21:50.686Z,92.18
2017-11-01T09:22:50.675Z,91.89
2017-11-01T09:23:50.664Z,91.71
2017-11-01T09:24:50.671Z,91.89
2017-11-01T09:25:50.643Z,92.27
2017-11-01T09:26:50.643Z,91.8
2017-11-01T09:27:50.629Z,92.18
2017-11-01T09:28:50.295Z,92.46
2017-11-01T09:29:50.609Z,92.27
2017-11-01T09:30:50.275Z,92.46
2017-11-01T09:31:50.266Z,92.46
2017-11-01T09:32:50.254Z,92.94
2017-11-01T09:33:50.576Z,93.23
2017-11-01T09:34:50.562Z,92.66
2017-11-01T09:35:50.548Z,92.94
2017-11-01T09:36:50.542Z,92.37
2017-11-01T09:37:50.209Z,92.37
2017-11-01T09:38:50.201Z,92.08
2017-11-01T09:39:50.188Z,91.89
2017-11-01T09:40:50.503Z,91.71
2017-11-01T09:41:50.494Z,92.08
2017-11-01T09:42:50.161Z,91.08
2017-11-01T09:43:50.151Z,90.75
2017-11-01T09:44:50.467Z,91.04
2017-11-01T09:45:50.458Z,91.04
2017-11-01T09:46:50.452Z,90.42
2017-11-01T09:47:50.440Z,90.61
2017-11-01T09:48:50.106Z,90.7
2017-11-01T09:49:50.094Z,90.52
2017-11-01T09:50:50.086Z,90.42
2017-11-01T09:51:50.404Z,90.61
2017-11-01T09:52:50.395Z,89.94
2017-11-01T09:53:50.056Z,87.38
2017-11-01T09:54:50.050Z,86.52
2017-11-01T09:55:50.038Z,86.71
2017-11-01T09:56:50.029Z,87.28
2017-11-01T09:57:50.341Z,86.99
2017-11-01T09:58:50.011Z,86.99
2017-11-01T09:59:50.001Z,86.9
2017-11-01T10:00:49.990Z,86.61
2017-11-01T10:01:50.309Z,86.52
2017-11-01T10:02:50.298Z,86.52
2017-11-01T10:03:50.293Z,86.43
2017-11-01T10:04:49.952Z,86.43
2017-11-01T10:05:50.049Z,86.52
2017-11-01T10:06:49.934Z,86.43
2017-11-01T10:07:49.924Z,86.61
2017-11-01T10:08:49.914Z,86.05
2017-11-01T10:09:49.905Z,86.28
2017-11-01T10:10:49.900Z,86.28
2017-11-01T10:11:49.889Z,86.38
2017-11-01T10:12:49.878Z,85.14
2017-11-01T10:13:50.190Z,85.33
2017-11-01T10:14:50.195Z,85.28
2017-11-01T10:15:50.170Z,85.14
2017-11-01T10:16:49.840Z,85.28
2017-11-01T10:17:49.836Z,85.24
2017-11-01T10:18:49.823Z,85.33
2017-11-01T10:19:50.133Z,84.95
2017-11-01T10:20:49.803Z,85.1
2017-11-01T10:21:49.791Z,85.19
2017-11-01T10:22:49.781Z,85.19
2017-11-01T10:23:49.772Z,85.38
2017-11-01T10:24:49.772Z,85.47
2017-11-01T10:25:50.077Z,85.86
2017-11-01T10:26:49.746Z,85.61
2017-11-01T10:27:49.735Z,85.8
2017-11-01T10:28:49.729Z,85.52
2017-11-01T10:29:49.716Z,85.61
2017-11-01T10:30:49.707Z,85.33
2017-11-01T10:31:49.698Z,85.14
2017-11-01T10:32:49.691Z,84.66
2017-11-01T10:33:49.678Z,84.47
2017-11-01T10:34:49.668Z,83.04
2017-11-01T10:35:49.983Z,82.38
2017-11-01T10:36:49.973Z,82.42
2017-11-01T10:37:49.963Z,82.23
2017-11-01T10:38:49.959Z,81.56
2017-11-01T10:39:49.946Z,81.28
2017-11-01T10:40:49.939Z,81.28
2017-11-01T10:41:49.602Z,80.61
2017-11-01T10:42:49.595Z,81.47
2017-11-01T10:43:49.584Z,80.71
2017-11-01T10:44:49.574Z,80.9
2017-11-01T10:45:49.890Z,80.04
2017-11-01T10:46:49.883Z,79.94
2017-11-01T10:47:49.873Z,80.13
2017-11-01T10:48:49.539Z,80.23
2017-11-01T10:49:49.528Z,79.57
2017-11-01T10:50:49.520Z,80.23
2017-11-01T10:51:49.833Z,79.85
2017-11-01T10:52:49.822Z,80.13
2017-11-01T10:53:49.815Z,79.94
2017-11-01T10:54:49.582Z,79.38
2017-11-01T10:55:49.794Z,79.09
2017-11-01T10:56:49.788Z,79.09
2017-11-01T10:57:49.929Z,78.52
2017-11-01T10:58:49.444Z,78.61
2017-11-01T10:59:49.755Z,78.52
2017-11-01T11:00:49.751Z,78.42
2017-11-01T11:01:49.568Z,79.19
2017-11-01T11:02:49.728Z,79.28
2017-11-01T11:03:49.734Z,79.47
2017-11-01T11:04:49.723Z,79.19
2017-11-01T11:05:49.802Z,79.09
2017-11-01T11:06:49.369Z,78.9
2017-11-01T11:07:49.684Z,79.38
2017-11-01T11:08:49.358Z,79.47
2017-11-01T11:09:49.663Z,79.94
2017-11-01T11:10:49.330Z,79.66
2017-11-01T11:11:49.424Z,79.51
2017-11-01T11:12:49.313Z,79.57
2017-11-01T11:13:49.629Z,79.51
2017-11-01T11:14:49.619Z,78.75
2017-11-01T11:15:49.287Z,79.03
2017-11-01T11:16:49.701Z,78.08
2017-11-01T11:17:49.590Z,78.14
2017-11-01T11:18:49.257Z,78.8
2017-11-01T11:19:49.252Z,78.99
2017-11-01T11:20:49.568Z,78.9
2017-11-01T11:21:49.553Z,78.61
2017-11-01T11:22:49.222Z,78.52
2017-11-01T11:23:49.645Z,78.75
2017-11-01T11:24:49.530Z,78.42
2017-11-01T11:25:49.517Z,79.19
2017-11-01T11:26:49.506Z,79.28
2017-11-01T11:27:49.176Z,79.75
2017-11-01T11:28:49.168Z,79.75
2017-11-01T11:29:49.159Z,79.22
2017-11-01T11:30:49.154Z,79.32
2017-11-01T11:31:49.142Z,79.8
2017-11-01T11:32:49.132Z,79.7
2017-11-01T11:33:49.131Z,79.32
2017-11-01T11:34:49.433Z,79.51
2017-11-01T11:35:49.102Z,79.99
2017-11-01T11:36:49.344Z,80.27
2017-11-01T11:37:49.088Z,79.99
2017-11-01T11:38:49.396Z,79.89
2017-11-01T11:39:49.065Z,80.27
2017-11-01T11:40:49.055Z,80.08
2017-11-01T11:41:49.050Z,79.7
2017-11-01T11:42:49.138Z,79.7
2017-11-01T11:43:49.029Z,79.89
2017-11-01T11:44:49.341Z,79.32
2017-11-01T11:45:49.008Z,79.13
2017-11-01T11:46:49.327Z,79.03
2017-11-01T11:47:49.317Z,78.75
2017-11-01T11:48:48.983Z,79.32
2017-11-01T11:49:48.975Z,79.6
2017-11-01T11:50:49.302Z,79.6
2017-11-01T11:51:49.278Z,79.7
2017-11-01T11:52:48.944Z,79.7
2017-11-01T11:53:48.936Z,79.6
2017-11-01T11:54:49.256Z,80.08
2017-11-01T11:55:48.917Z,80.08
2017-11-01T11:56:48.908Z,80.46
2017-11-01T11:57:48.900Z,80.08
2017-11-01T11:58:48.895Z,79.7
2017-11-01T11:59:48.880Z,79.51
2017-11-01T12:00:48.871Z,79.6
2017-11-01T12:01:48.863Z,79.32
2017-11-01T12:02:48.853Z,79.32
2017-11-01T12:03:49.166Z,78.75
2017-11-01T12:04:49.158Z,78.56
2017-11-01T12:05:49.156Z,78.12
2017-11-01T12:06:49.147Z,77.83
2017-11-01T12:07:49.135Z,77.74
2017-11-01T12:08:49.157Z,77.7
2017-11-01T12:09:48.789Z,77.98
2017-11-01T12:10:49.103Z,78.78
2017-11-01T12:11:48.770Z,78.78
2017-11-01T12:12:48.860Z,78.59
2017-11-01T12:13:49.084Z,78.59
2017-11-01T12:14:49.070Z,78.78
2017-11-01T12:15:49.056Z,78.88
2017-11-01T12:16:48.743Z,77.74
2017-11-01T12:17:48.718Z,77.17
2017-11-01T12:18:49.027Z,76.59
2017-11-01T12:19:49.023Z,76.5
2017-11-01T12:20:48.789Z,76.79
2017-11-01T12:21:48.679Z,76.59
2017-11-01T12:22:48.770Z,76.12
2017-11-01T12:23:48.983Z,76.03
2017-11-01T12:24:49.001Z,76.03
2017-11-01T12:25:48.963Z,75.93
2017-11-01T12:26:48.633Z,75.36
2017-11-01T12:27:48.955Z,75.64
2017-11-01T12:28:48.616Z,75.55
2017-11-01T12:29:48.605Z,75.74
2017-11-01T12:30:48.598Z,75.36
2017-11-01T12:31:48.587Z,74.98
2017-11-01T12:32:49.003Z,74.79
2017-11-01T12:33:48.570Z,74.98
2017-11-01T12:34:48.883Z,75.45
2017-11-01T12:35:48.548Z,76.12
2017-11-01T12:36:48.546Z,75.45
2017-11-01T12:37:48.632Z,75.49
2017-11-01T12:38:48.850Z,75.26
2017-11-01T12:39:48.613Z,75.3
2017-11-01T12:40:48.929Z,75.68
2017-11-01T12:41:48.818Z,75.59
2017-11-01T12:42:48.489Z,75.68
2017-11-01T12:43:48.900Z,76.06
2017-11-01T12:44:48.792Z,76.06
2017-11-01T12:45:48.779Z,76.35
2017-11-01T12:46:48.448Z,76.73
2017-11-01T12:47:48.440Z,76.44
2017-11-01T12:48:48.432Z,76.35
2017-11-01T12:49:48.423Z,76.35
2017-11-01T12:50:48.838Z,76.16
2017-11-01T12:51:48.406Z,76.06
2017-11-01T12:52:48.397Z,75.96
2017-11-01T12:53:48.709Z,75.87
2017-11-01T12:54:48.381Z,76.35